createdAt,value
2017-07-21T00:01:04.233Z,51.42
2017-07-21T00:02:14.189Z,51.62
2017-07-21T00:03:24.406Z,51.42
2017-07-21T00:04:33.693Z,51.72
2017-07-21T00:05:43.649Z,51.32
2017-07-21T00:06:53.267Z,51.52
2017-07-21T00:08:03.176Z,51.32
2017-07-21T00:09:13.487Z,51.42
2017-07-21T00:10:23.394Z,51.42
2017-07-21T00:11:32.996Z,51.04
2017-07-21T00:12:43.219Z,51.3
2017-07-21T00:13:53.129Z,51.3
2017-07-21T00:15:02.909Z,51.3
2017-07-21T00:16:12.820Z,51.32
2017-07-21T00:17:23.034Z,51.2
2017-07-21T00:18:32.627Z,51.4
2017-07-21T00:19:41.932Z,51.23
2017-07-21T00:20:52.151Z,51.1
2017-07-21T00:22:02.382Z,51.1
2017-07-21T00:23:12.296Z,51.4
2017-07-21T00:24:22.222Z,51.2
2017-07-21T00:25:31.520Z,51.4
2017-07-21T00:26:41.438Z,51.5
2017-07-21T00:27:51.032Z,51.3
2017-07-21T00:29:00.954Z,51.3
2017-07-21T00:30:10.872Z,51.3
2017-07-21T00:31:20.787Z,51.5
2017-07-21T00:32:30.751Z,51.3
2017-07-21T00:33:40.991Z,51.3
2017-07-21T00:34:50.896Z,51.59
2017-07-21T00:36:00.831Z,51.59
2017-07-21T00:37:11.053Z,51.5
2017-07-21T00:38:20.966Z,51.3
2017-07-21T00:39:31.181Z,51.3
2017-07-21T00:40:40.789Z,51.3
2017-07-21T00:41:50.084Z,51.3
2017-07-21T00:43:00.303Z,51.3
2017-07-21T00:44:10.818Z,51.3
2017-07-21T00:45:21.067Z,51.3
2017-07-21T00:46:31.284Z,51.3
2017-07-21T00:47:40.881Z,51.3
2017-07-21T00:48:50.493Z,51.4
2017-07-21T00:49:59.852Z,51.3
2017-07-21T00:51:09.764Z,51.1
2017-07-21T00:52:19.685Z,50.92
2017-07-21T00:53:29.601Z,51.2
2017-07-21T00:54:39.523Z,51.2
2017-07-21T00:55:49.889Z,50.82
2017-07-21T00:56:59.504Z,51.1
2017-07-21T00:58:09.732Z,50.92
2017-07-21T00:59:19.955Z,50.82
2017-07-21T01:00:30.163Z,50.82
2017-07-21T01:01:40.549Z,50.82
2017-07-21T01:02:50.767Z,50.82
2017-07-21T01:04:00.677Z,51.08
2017-07-21T01:05:10.311Z,50.79
2017-07-21T01:06:20.254Z,50.7
2017-07-21T01:07:30.477Z,50.89
2017-07-21T01:08:40.700Z,50.98
2017-07-21T01:09:50.930Z,50.79
2017-07-21T01:11:00.845Z,50.79
2017-07-21T01:12:10.142Z,50.89
2017-07-21T01:13:20.372Z,50.79
2017-07-21T01:14:30.303Z,50.89
2017-07-21T01:15:40.213Z,50.89
2017-07-21T01:16:50.122Z,50.98
2017-07-21T01:18:00.043Z,50.89
2017-07-21T01:19:10.106Z,50.89
2017-07-21T01:20:20.316Z,51.08
2017-07-21T01:21:30.245Z,50.89
2017-07-21T01:22:40.461Z,50.79
2017-07-21T01:23:50.694Z,50.89
2017-07-21T01:25:00.765Z,50.79
2017-07-21T01:26:10.675Z,50.79
2017-07-21T01:27:20.607Z,50.79
2017-07-21T01:28:30.545Z,50.89
2017-07-21T01:29:40.141Z,50.79
2017-07-21T01:30:50.350Z,50.79
2017-07-21T01:32:00.268Z,51.08
2017-07-21T01:33:09.883Z,50.86
2017-07-21T01:34:20.107Z,50.96
2017-07-21T01:35:30.011Z,51.06
2017-07-21T01:36:39.461Z,50.86
2017-07-21T01:37:49.684Z,50.79
2017-07-21T01:38:59.625Z,50.89
2017-07-21T01:40:08.930Z,50.98
2017-07-21T01:41:18.851Z,50.98
2017-07-21T01:42:28.467Z,50.76
2017-07-21T01:43:37.770Z,50.4
2017-07-21T01:44:47.675Z,50.76
2017-07-21T01:45:57.597Z,50.79
2017-07-21T01:47:07.230Z,50.96
2017-07-21T01:48:17.141Z,50.76
2017-07-21T01:49:27.375Z,50.48
2017-07-21T01:50:36.672Z,50.67
2017-07-21T01:51:46.888Z,50.67
2017-07-21T01:52:56.814Z,50.38
2017-07-21T01:54:06.901Z,50.6
2017-07-21T01:55:16.821Z,50.48
2017-07-21T01:56:26.432Z,50.38
2017-07-21T01:57:36.338Z,50.38
2017-07-21T01:58:46.254Z,50.38
2017-07-21T01:59:56.317Z,50.38
2017-07-21T02:01:05.324Z,50.38
2017-07-21T02:02:15.234Z,50.38
2017-07-21T02:03:25.140Z,50.48
2017-07-21T02:04:35.068Z,50.38
2017-07-21T02:05:45.639Z,50.96
2017-07-21T02:06:55.241Z,50.86
2017-07-21T02:08:05.464Z,50.28
2017-07-21T02:09:15.373Z,50.48
2017-07-21T02:10:25.299Z,50.28
2017-07-21T02:11:34.959Z,50.18
2017-07-21T02:12:44.872Z,50.18
2017-07-21T02:13:54.188Z,50.09
2017-07-21T02:15:04.100Z,50.18
2017-07-21T02:16:14.335Z,50.09
2017-07-21T02:17:24.571Z,50.38
2017-07-21T02:18:34.482Z,50.18
2017-07-21T02:19:44.394Z,50.28
2017-07-21T02:20:54.004Z,50.09
2017-07-21T02:22:03.918Z,50.09
2017-07-21T02:23:13.989Z,50.09
2017-07-21T02:24:22.982Z,50.18
2017-07-21T02:25:32.900Z,50.09
2017-07-21T02:26:42.819Z,50.09
2017-07-21T02:27:53.052Z,50.09
2017-07-21T02:29:03.035Z,50.18
2017-07-21T02:30:12.947Z,50.09
2017-07-21T02:31:22.554Z,50.09
2017-07-21T02:32:32.787Z,50.28
2017-07-21T02:33:42.384Z,49.99
2017-07-21T02:34:52.763Z,50.09
2017-07-21T02:36:02.691Z,50.18
2017-07-21T02:37:12.607Z,50.09
2017-07-21T02:38:22.522Z,50.09
2017-07-21T02:39:32.438Z,49.99
2017-07-21T02:40:42.053Z,50.26
2017-07-21T02:41:51.971Z,50.28
2017-07-21T02:43:01.878Z,50.18
2017-07-21T02:44:11.184Z,50.35
2017-07-21T02:45:21.413Z,50.18
2017-07-21T02:46:31.381Z,50.28
2017-07-21T02:47:41.280Z,50.18
2017-07-21T02:48:51.509Z,50.38
2017-07-21T02:50:01.746Z,50.26
2017-07-21T02:51:11.981Z,50.28
2017-07-21T02:52:21.925Z,50.28
2017-07-21T02:53:31.845Z,50.35
2017-07-21T02:54:42.065Z,50.26
2017-07-21T02:55:52.013Z,50.26
2017-07-21T02:57:01.934Z,50.16
2017-07-21T02:58:12.188Z,50.16
2017-07-21T02:59:22.099Z,50.26
2017-07-21T03:00:32.319Z,50.26
2017-07-21T03:01:41.941Z,50.26
2017-07-21T03:02:51.547Z,50.26
2017-07-21T03:04:01.162Z,50.26
2017-07-21T03:05:11.079Z,50.07
2017-07-21T03:06:21.013Z,50.26
2017-07-21T03:07:31.269Z,50.26
2017-07-21T03:08:40.576Z,50.35
2017-07-21T03:09:50.636Z,50.26
2017-07-21T03:11:00.862Z,50.26
2017-07-21T03:12:11.105Z,50.26
2017-07-21T03:13:21.319Z,50.35
2017-07-21T03:14:30.923Z,50.26
2017-07-21T03:15:41.144Z,50.26
2017-07-21T03:16:51.357Z,50.16
2017-07-21T03:18:01.280Z,50.35
2017-07-21T03:19:11.519Z,50.16
2017-07-21T03:20:21.634Z,50.16
2017-07-21T03:21:30.944Z,50.26
2017-07-21T03:22:40.856Z,50.35
2017-07-21T03:23:51.069Z,49.77
2017-07-21T03:25:00.985Z,49.87
2017-07-21T03:26:10.935Z,50.26
2017-07-21T03:27:20.857Z,49.97
2017-07-21T03:28:30.767Z,49.77
2017-07-21T03:29:40.676Z,50.16
2017-07-21T03:30:50.590Z,49.85
2017-07-21T03:32:00.197Z,49.87
2017-07-21T03:33:10.098Z,49.85
2017-07-21T03:34:20.315Z,49.87
2017-07-21T03:35:29.626Z,49.87
2017-07-21T03:36:39.853Z,49.87
2017-07-21T03:37:49.772Z,49.87
2017-07-21T03:38:59.371Z,49.85
2017-07-21T03:40:09.593Z,49.77
2017-07-21T03:41:19.214Z,49.85
2017-07-21T03:42:28.827Z,49.85
2017-07-21T03:43:38.751Z,49.55
2017-07-21T03:44:48.353Z,49.85
2017-07-21T03:45:58.572Z,49.85
2017-07-21T03:47:08.778Z,49.46
2017-07-21T03:48:18.988Z,49.85
2017-07-21T03:49:29.204Z,49.85
2017-07-21T03:50:38.830Z,49.55
2017-07-21T03:51:48.762Z,49.85
2017-07-21T03:52:58.685Z,49.85
2017-07-21T03:54:08.624Z,49.85
2017-07-21T03:55:18.843Z,50.04
2017-07-21T03:56:29.081Z,49.85
2017-07-21T03:57:39.003Z,49.95
2017-07-21T03:58:49.226Z,49.85
2017-07-21T03:59:59.139Z,49.85
2017-07-21T04:01:08.761Z,49.85
2017-07-21T04:02:18.363Z,49.65
2017-07-21T04:03:28.577Z,49.55
2017-07-21T04:04:38.815Z,50.04
2017-07-21T04:05:48.720Z,49.95
2017-07-21T04:06:57.715Z,49.95
2017-07-21T04:08:07.625Z,49.95
2017-07-21T04:09:17.542Z,50.04
2017-07-21T04:10:27.164Z,49.55
2017-07-21T04:11:37.374Z,49.46
2017-07-21T04:12:47.386Z,49.46
2017-07-21T04:13:57.609Z,49.55
2017-07-21T04:15:07.534Z,49.65
2017-07-21T04:16:17.767Z,49.65
2017-07-21T04:17:27.687Z,49.75
2017-07-21T04:18:37.676Z,49.65
2017-07-21T04:19:47.896Z,49.27
2017-07-21T04:20:57.550Z,49.55
2017-07-21T04:22:06.855Z,49.37
2017-07-21T04:23:16.767Z,49.07
2017-07-21T04:24:26.057Z,49.07
2017-07-21T04:25:35.848Z,49.17
2017-07-21T04:26:45.787Z,48.97
2017-07-21T04:27:55.737Z,49.27
2017-07-21T04:29:05.348Z,49.46
2017-07-21T04:30:15.268Z,49.46
2017-07-21T04:31:25.502Z,49.46
2017-07-21T04:32:35.717Z,49.27
2017-07-21T04:33:45.341Z,49.17
2017-07-21T04:34:55.261Z,49.07
2017-07-21T04:36:04.853Z,48.97
2017-07-21T04:37:14.476Z,48.97
2017-07-21T04:38:24.387Z,48.79
2017-07-21T04:39:34.014Z,49.07
2017-07-21T04:40:43.933Z,49.17
2017-07-21T04:41:53.549Z,48.88
2017-07-21T04:43:03.789Z,48.97
2017-07-21T04:44:13.714Z,48.79
2017-07-21T04:45:23.934Z,48.97
2017-07-21T04:46:33.867Z,48.97
2017-07-21T04:47:44.114Z,48.88
2017-07-21T04:48:53.729Z,48.79
2017-07-21T04:50:03.709Z,48.59
2017-07-21T04:51:13.928Z,49.17
2017-07-21T04:52:24.175Z,48.97
2017-07-21T04:53:34.092Z,48.79
2017-07-21T04:54:44.333Z,48.79
2017-07-21T04:55:53.951Z,48.97
2017-07-21T04:57:04.176Z,48.79
2017-07-21T04:58:14.104Z,48.59
2017-07-21T04:59:23.714Z,48.59
2017-07-21T05:00:33.323Z,48.59
2017-07-21T05:01:42.943Z,48.42
2017-07-21T05:02:52.875Z,48.23
2017-07-21T05:04:03.098Z,47.94
2017-07-21T05:05:13.340Z,47.84
2017-07-21T05:06:23.565Z,47.45
2017-07-21T05:07:33.481Z,47.45
2017-07-21T05:08:43.402Z,47.38
2017-07-21T05:09:53.063Z,47.19
2017-07-21T05:11:02.712Z,47.28
2017-07-21T05:12:12.963Z,47.67
2017-07-21T05:13:22.889Z,46.8
2017-07-21T05:14:32.802Z,46.7
2017-07-21T05:15:42.721Z,46.44
2017-07-21T05:16:52.042Z,46.73
2017-07-21T05:18:02.508Z,46.44
2017-07-21T05:19:12.450Z,46.63
2017-07-21T05:20:22.708Z,46.34
2017-07-21T05:21:32.935Z,45.95
2017-07-21T05:22:43.197Z,45.66
2017-07-21T05:23:53.117Z,45.88
2017-07-21T05:25:03.073Z,45.98
2017-07-21T05:26:13.001Z,45.3
2017-07-21T05:27:22.925Z,45.1
2017-07-21T05:28:32.886Z,45.01
2017-07-21T05:29:42.498Z,44.93
2017-07-21T05:30:52.734Z,44.74
2017-07-21T05:32:02.658Z,44.35
2017-07-21T05:33:12.928Z,44.45
2017-07-21T05:34:22.847Z,44.45
2017-07-21T05:35:33.085Z,44.09
2017-07-21T05:36:43.327Z,44.27
2017-07-21T05:37:52.952Z,43.7
2017-07-21T05:39:02.614Z,43.91
2017-07-21T05:40:12.523Z,43.52
2017-07-21T05:41:22.444Z,43.13
2017-07-21T05:42:32.366Z,43.13
2017-07-21T05:43:41.977Z,43.06
2017-07-21T05:44:51.600Z,42.77
2017-07-21T05:46:01.521Z,42.57
2017-07-21T05:47:11.828Z,42.4
2017-07-21T05:48:21.444Z,42.21
2017-07-21T05:49:31.346Z,42.3
2017-07-21T05:50:41.280Z,42.21
2017-07-21T05:51:51.203Z,41.94
2017-07-21T05:53:01.426Z,41.94
2017-07-21T05:54:11.365Z,41.84
2017-07-21T05:55:21.282Z,42.03
2017-07-21T05:56:31.504Z,42.13
2017-07-21T05:57:40.862Z,42.33
2017-07-21T05:58:50.474Z,41.55
2017-07-21T06:00:00.077Z,41.57
2017-07-21T06:01:09.711Z,41.16
2017-07-21T06:02:19.930Z,41.28
2017-07-21T06:03:29.539Z,41.08
2017-07-21T06:04:39.455Z,40.99
2017-07-21T06:05:49.678Z,40.89
2017-07-21T06:06:59.305Z,41.01
2017-07-21T06:08:09.580Z,40.72
2017-07-21T06:09:19.496Z,40.62
2017-07-21T06:10:28.981Z,40.33
2017-07-21T06:11:39.218Z,39.94
2017-07-21T06:12:48.828Z,40.15
2017-07-21T06:13:58.784Z,39.96
2017-07-21T06:15:08.712Z,40.25
2017-07-21T06:16:18.955Z,39.96
2017-07-21T06:17:28.903Z,39.67
2017-07-21T06:18:39.177Z,39.76
2017-07-21T06:19:49.139Z,39.78
2017-07-21T06:20:59.051Z,39.69
2017-07-21T06:22:09.309Z,39.98
2017-07-21T06:23:18.625Z,39.78
2017-07-21T06:24:28.854Z,39.29
2017-07-21T06:25:38.154Z,39.2
2017-07-21T06:26:47.760Z,39.39
2017-07-21T06:27:57.685Z,39.69
2017-07-21T06:29:07.603Z,39.39
2017-07-21T06:30:17.543Z,39.12
2017-07-21T06:31:27.775Z,39.03
2017-07-21T06:32:38.004Z,38.83
2017-07-21T06:33:47.616Z,38.46
2017-07-21T06:34:57.229Z,38.65
2017-07-21T06:36:07.172Z,38.56
2017-07-21T06:37:16.860Z,38.65
2017-07-21T06:38:26.836Z,38.75
2017-07-21T06:39:36.754Z,38.46
2017-07-21T06:40:46.663Z,38.28
2017-07-21T06:41:56.897Z,37.99
2017-07-21T06:43:06.829Z,38.18
2017-07-21T06:44:16.772Z,37.89
2017-07-21T06:45:27.005Z,37.99
2017-07-21T06:46:37.235Z,38.77
2017-07-21T06:47:46.865Z,38.48
2017-07-21T06:48:57.092Z,38.85
2017-07-21T06:50:07.337Z,39.72
2017-07-21T06:51:17.262Z,39.34
2017-07-21T06:52:26.897Z,39.61
2017-07-21T06:53:36.819Z,40.09
2017-07-21T06:54:46.437Z,40.19
2017-07-21T06:55:55.786Z,40.66
2017-07-21T06:57:05.411Z,41.05
2017-07-21T06:58:15.069Z,40.85
2017-07-21T06:59:24.999Z,40.95
2017-07-21T07:00:34.927Z,41.14
2017-07-21T07:01:44.542Z,40.95
2017-07-21T07:02:54.489Z,41.05
2017-07-21T07:04:04.105Z,40.66
2017-07-21T07:05:14.383Z,39.7
2017-07-21T07:06:24.646Z,38.85
2017-07-21T07:07:34.921Z,38.18
2017-07-21T07:08:44.557Z,37.91
2017-07-21T07:09:54.492Z,37.45
2017-07-21T07:11:04.720Z,37.05
2017-07-21T07:12:14.954Z,36.88
2017-07-21T07:13:24.889Z,36.21
2017-07-21T07:14:34.543Z,35.74
2017-07-21T07:15:44.506Z,35.45
2017-07-21T07:16:54.121Z,35.17
2017-07-21T07:18:04.420Z,34.89
2017-07-21T07:19:14.345Z,34.6
2017-07-21T07:20:24.580Z,34.7
2017-07-21T07:21:34.797Z,34.42
2017-07-21T07:22:44.743Z,34.81
2017-07-21T07:23:54.674Z,34.81
2017-07-21T07:25:04.625Z,35.68
2017-07-21T07:26:14.560Z,35.48
2017-07-21T07:27:24.495Z,35.95
2017-07-21T07:28:33.805Z,36.34
2017-07-21T07:29:43.727Z,36.82
2017-07-21T07:30:53.350Z,36.91
2017-07-21T07:32:03.299Z,37.11
2017-07-21T07:33:12.921Z,36.82
2017-07-21T07:34:22.850Z,36.82
2017-07-21T07:35:33.079Z,36.62
2017-07-21T07:36:42.699Z,36.82
2017-07-21T07:37:52.632Z,36.82
2017-07-21T07:39:02.553Z,36.33
2017-07-21T07:40:12.474Z,36.83
2017-07-21T07:41:22.394Z,36.82
2017-07-21T07:42:32.308Z,37.21
2017-07-21T07:43:42.217Z,37.4
2017-07-21T07:44:51.530Z,37.4
2017-07-21T07:46:01.746Z,37.5
2017-07-21T07:47:11.354Z,37.77
2017-07-21T07:48:21.575Z,38.35
2017-07-21T07:49:31.803Z,38.34
2017-07-21T07:50:41.725Z,38.04
2017-07-21T07:51:51.645Z,38.34
2017-07-21T07:53:01.564Z,38.92
2017-07-21T07:54:11.183Z,38.81
2017-07-21T07:55:21.104Z,39.2
2017-07-21T07:56:31.339Z,38.51
2017-07-21T07:57:40.952Z,38.81
2017-07-21T07:58:50.552Z,38.61
2017-07-21T08:00:00.174Z,38.71
2017-07-21T08:01:10.091Z,38.42
2017-07-21T08:02:20.017Z,37.46
2017-07-21T08:03:30.287Z,36.33
2017-07-21T08:04:40.015Z,35.17
2017-07-21T08:05:49.952Z,34.52
2017-07-21T08:06:58.954Z,33.48
2017-07-21T08:08:08.875Z,32.63
2017-07-21T08:09:19.101Z,31.97
2017-07-21T08:10:29.332Z,31.3
2017-07-21T08:11:39.286Z,30.53
2017-07-21T08:12:48.894Z,30.35
2017-07-21T08:13:58.813Z,29.97
2017-07-21T08:15:08.736Z,29.69
2017-07-21T08:16:18.054Z,29.69
2017-07-21T08:17:27.988Z,29.89
2017-07-21T08:18:37.902Z,30.77
2017-07-21T08:19:48.133Z,30.47
2017-07-21T08:20:57.744Z,29.99
2017-07-21T08:22:07.970Z,29.71
2017-07-21T08:23:18.216Z,29.51
2017-07-21T08:24:28.144Z,29.43
2017-07-21T08:25:38.364Z,29.05
2017-07-21T08:26:48.277Z,28.47
2017-07-21T08:27:58.192Z,28.58
2017-07-21T08:29:07.825Z,28.19
2017-07-21T08:30:18.051Z,28.1
2017-07-21T08:31:27.971Z,28.41
2017-07-21T08:32:38.209Z,28.88
2017-07-21T08:33:48.200Z,29.17
2017-07-21T08:34:57.835Z,29.47
2017-07-21T08:36:07.750Z,29.65
2017-07-21T08:37:17.404Z,29.55
2017-07-21T08:38:27.638Z,29.75
2017-07-21T08:39:37.875Z,29.63
2017-07-21T08:40:47.497Z,29.46
2017-07-21T08:41:57.424Z,29.27
2017-07-21T08:43:07.660Z,28.68
2017-07-21T08:44:17.295Z,28.4
2017-07-21T08:45:27.229Z,28.31
2017-07-21T08:46:36.853Z,27.82
2017-07-21T08:47:46.472Z,27.93
2017-07-21T08:48:56.097Z,27.45
2017-07-21T08:50:06.103Z,27.65
2017-07-21T08:51:15.408Z,27.26
2017-07-21T08:52:25.327Z,27.26
2017-07-21T08:53:35.557Z,27.56
2017-07-21T08:54:45.487Z,27.96
2017-07-21T08:55:55.412Z,28.44
2017-07-21T08:57:05.029Z,29.11
2017-07-21T08:58:15.267Z,29.6
2017-07-21T08:59:25.496Z,30.16
2017-07-21T09:00:35.743Z,30.73
2017-07-21T09:01:45.680Z,31.6
2017-07-21T09:02:55.623Z,31.88
2017-07-21T09:04:04.957Z,32.65
2017-07-21T09:05:15.195Z,33.33
2017-07-21T09:06:25.140Z,33.7
2017-07-21T09:07:35.443Z,34.18
2017-07-21T09:08:45.072Z,35.05
2017-07-21T09:09:55.303Z,34.93
2017-07-21T09:11:05.228Z,35.8
2017-07-21T09:12:15.164Z,35.68
2017-07-21T09:13:24.786Z,36.37
2017-07-21T09:14:34.711Z,36.84
2017-07-21T09:15:44.622Z,37.41
2017-07-21T09:16:54.264Z,37.49
2017-07-21T09:18:03.872Z,37.79
2017-07-21T09:19:14.105Z,38.16
2017-07-21T09:20:23.415Z,38.14
2017-07-21T09:21:33.333Z,38.92
2017-07-21T09:22:43.260Z,38.71
2017-07-21T09:23:53.195Z,39.29
2017-07-21T09:25:03.419Z,39.76
2017-07-21T09:26:13.038Z,40.06
2017-07-21T09:27:22.955Z,40.14
2017-07-21T09:28:32.716Z,40.53
2017-07-21T09:29:42.961Z,40.92
2017-07-21T09:30:53.187Z,40.8
2017-07-21T09:32:03.102Z,40.89
2017-07-21T09:33:13.013Z,41.07
2017-07-21T09:34:22.031Z,41.56
2017-07-21T09:35:31.960Z,41.66
2017-07-21T09:36:41.282Z,41.54
2017-07-21T09:37:50.594Z,42.22
2017-07-21T09:39:00.563Z,42.41
2017-07-21T09:40:10.194Z,42.22
2017-07-21T09:41:19.804Z,42.3
2017-07-21T09:42:29.478Z,42.59
2017-07-21T09:43:39.396Z,42.76
2017-07-21T09:44:49.010Z,42.59
2017-07-21T09:45:59.284Z,42.66
2017-07-21T09:47:09.194Z,42.76
2017-07-21T09:48:19.453Z,42.94
2017-07-21T09:49:29.702Z,43.04
2017-07-21T09:50:39.324Z,43.33
2017-07-21T09:51:49.270Z,43.23
2017-07-21T09:52:59.190Z,43.52
2017-07-21T09:54:09.111Z,43.13
2017-07-21T09:55:19.032Z,43.52
2017-07-21T09:56:29.268Z,43.33
2017-07-21T09:57:39.198Z,43.6
2017-07-21T09:58:49.116Z,43.3
2017-07-21T09:59:58.723Z,43.79
2017-07-21T10:01:08.669Z,43.79
2017-07-21T10:02:18.590Z,44.28
2017-07-21T10:03:28.814Z,43.89
2017-07-21T10:04:38.748Z,44.09
2017-07-21T10:05:48.051Z,43.99
2017-07-21T10:06:57.659Z,43.96
2017-07-21T10:08:07.898Z,44.06
2017-07-21T10:09:18.120Z,44.06
2017-07-21T10:10:28.049Z,44.06
2017-07-21T10:11:37.655Z,43.96
2017-07-21T10:12:47.876Z,43.96
2017-07-21T10:13:57.788Z,44.16
2017-07-21T10:15:07.697Z,43.96
2017-07-21T10:16:17.318Z,44.06
2017-07-21T10:17:26.923Z,44.04
2017-07-21T10:18:36.256Z,44.53
2017-07-21T10:19:45.860Z,44.53
2017-07-21T10:20:55.814Z,44.53
2017-07-21T10:22:05.732Z,44.43
2017-07-21T10:23:15.636Z,44.33
2017-07-21T10:24:25.243Z,44.33
2017-07-21T10:25:34.867Z,44.43
2017-07-21T10:26:44.795Z,44.24
2017-07-21T10:27:54.731Z,44.04
2017-07-21T10:29:07.986Z,44.14
2017-07-21T10:30:17.310Z,44.14
2017-07-21T10:31:27.551Z,44.14
2017-07-21T10:32:37.468Z,44.24
2017-07-21T10:33:47.428Z,44.33
2017-07-21T10:34:57.344Z,44.24
2017-07-21T10:36:07.579Z,44.12
2017-07-21T10:37:17.492Z,44.31
2017-07-21T10:38:27.253Z,44.31
2017-07-21T10:39:37.179Z,44.21
2017-07-21T10:40:47.099Z,44.12
2017-07-21T10:41:57.018Z,44.21
2017-07-21T10:43:07.260Z,44.21
2017-07-21T10:44:17.192Z,44.12
2017-07-21T10:45:27.407Z,44.12
2017-07-21T10:46:37.650Z,44.21
2017-07-21T10:47:47.266Z,44.21
2017-07-21T10:48:57.192Z,44.21
2017-07-21T10:50:07.414Z,44.21
2017-07-21T10:51:17.629Z,44.12
2017-07-21T10:52:27.553Z,44.12
2017-07-21T10:53:37.477Z,44.21
2017-07-21T10:54:47.103Z,44.31
2017-07-21T10:55:57.344Z,44.31
2017-07-21T10:57:07.575Z,44.21
2017-07-21T10:58:17.796Z,44.12
2017-07-21T10:59:28.022Z,44.21
2017-07-21T11:00:37.351Z,44.21
2017-07-21T11:01:46.348Z,44.21
2017-07-21T11:02:56.573Z,44.21
2017-07-21T11:04:06.491Z,44.12
2017-07-21T11:05:16.411Z,44.21
2017-07-21T11:06:26.331Z,44.31
2017-07-21T11:07:36.267Z,44.29
2017-07-21T11:08:46.201Z,44.41
2017-07-21T11:09:55.818Z,44.19
2017-07-21T11:11:06.038Z,44.38
2017-07-21T11:12:16.266Z,44.29
2017-07-21T11:13:26.492Z,44.31
2017-07-21T11:14:36.709Z,44.38
2017-07-21T11:15:46.623Z,44.41
2017-07-21T11:16:55.933Z,44.29
2017-07-21T11:18:06.156Z,44.51
2017-07-21T11:19:15.758Z,44.38
2017-07-21T11:20:25.686Z,44.41
2017-07-21T11:21:35.314Z,44.38
2017-07-21T11:22:45.225Z,44.38
2017-07-21T11:23:55.148Z,44.38
2017-07-21T11:25:04.440Z,44.38
2017-07-21T11:26:14.044Z,44.48
2017-07-21T11:27:23.990Z,44.19
2017-07-21T11:28:34.217Z,44.09
2017-07-21T11:29:44.150Z,44.19
2017-07-21T11:30:54.419Z,43.9
2017-07-21T11:32:04.353Z,43.8
2017-07-21T11:33:14.317Z,44.09
2017-07-21T11:34:23.943Z,43.9
2017-07-21T11:35:33.865Z,43.71
2017-07-21T11:36:44.091Z,43.9
2017-07-21T11:37:53.716Z,44
2017-07-21T11:39:03.645Z,43.9
2017-07-21T11:40:14.240Z,44.09
2017-07-21T11:41:23.862Z,43.9
2017-07-21T11:42:33.469Z,43.8
2017-07-21T11:43:43.729Z,43.8
2017-07-21T11:44:53.066Z,43.9
2017-07-21T11:46:02.975Z,44
2017-07-21T11:47:13.186Z,43.8
2017-07-21T11:48:22.793Z,43.9
2017-07-21T11:49:32.423Z,43.8
2017-07-21T11:50:42.026Z,43.9
2017-07-21T11:51:51.959Z,43.8
2017-07-21T11:53:02.192Z,43.8
2017-07-21T11:54:11.866Z,43.8
2017-07-21T11:55:21.493Z,43.8
2017-07-21T11:56:31.740Z,43.9
2017-07-21T11:57:41.970Z,44
2017-07-21T11:58:52.222Z,43.9
2017-07-21T12:00:02.499Z,44
2017-07-21T12:01:12.423Z,44
2017-07-21T12:02:22.364Z,44
2017-07-21T12:03:32.313Z,44
2017-07-21T12:04:41.946Z,44
2017-07-21T12:05:52.348Z,44
2017-07-21T12:07:02.584Z,43.9
2017-07-21T12:08:12.794Z,43.9
2017-07-21T12:09:22.703Z,44.09
2017-07-21T12:10:32.934Z,43.9
2017-07-21T12:11:43.022Z,44.09
2017-07-21T12:12:53.328Z,44
2017-07-21T12:14:03.034Z,44
2017-07-21T12:15:12.644Z,43.9
2017-07-21T12:16:22.888Z,44
2017-07-21T12:17:32.520Z,44.09
2017-07-21T12:18:42.734Z,44.09
2017-07-21T12:19:52.659Z,43.9
2017-07-21T12:21:02.578Z,43.9
2017-07-21T12:22:12.810Z,44
2017-07-21T12:23:23.034Z,43.9
2017-07-21T12:24:32.668Z,43.8
2017-07-21T12:25:42.587Z,43.8
2017-07-21T12:26:52.504Z,43.8
2017-07-21T12:28:01.814Z,43.8
2017-07-21T12:29:11.733Z,43.9
2017-07-21T12:30:21.650Z,43.8
2017-07-21T12:31:31.890Z,44.09
2017-07-21T12:32:41.826Z,43.9
2017-07-21T12:33:52.046Z,44.09
2017-07-21T12:35:02.270Z,44.09
2017-07-21T12:36:12.181Z,44
2017-07-21T12:37:22.106Z,44.09
2017-07-21T12:38:32.031Z,43.8
2017-07-21T12:39:42.272Z,43.71
2017-07-21T12:40:52.029Z,43.8
2017-07-21T12:42:15.010Z,43.9
2017-07-21T12:43:24.312Z,43.8
2017-07-21T12:44:34.235Z,43.8
2017-07-21T12:45:44.141Z,44.19
2017-07-21T12:46:54.057Z,43.9
2017-07-21T12:48:03.682Z,43.71
2017-07-21T12:49:13.625Z,44.19
2017-07-21T12:50:23.535Z,43.8
2017-07-21T12:51:33.145Z,43.8
2017-07-21T12:52:43.082Z,43.71
2017-07-21T12:53:53.350Z,43.8
2017-07-21T12:55:02.956Z,43.71
2017-07-21T12:56:12.567Z,43.71
2017-07-21T12:57:22.789Z,43.8
2017-07-21T12:58:32.706Z,43.8
2017-07-21T12:59:42.620Z,43.51
2017-07-21T13:00:52.575Z,43.8
2017-07-21T13:02:02.555Z,43.8
2017-07-21T13:03:12.474Z,43.71
2017-07-21T13:04:22.718Z,43.8
2017-07-21T13:05:32.054Z,43.78
2017-07-21T13:06:41.997Z,43.51
2017-07-21T13:07:52.231Z,43.8
2017-07-21T13:09:02.468Z,43.41
2017-07-21T13:10:12.725Z,43.8
2017-07-21T13:11:22.659Z,43.71
2017-07-21T13:12:32.272Z,43.71
2017-07-21T13:13:42.197Z,43.8
2017-07-21T13:14:52.419Z,43.71
2017-07-21T13:16:02.328Z,43.41
2017-07-21T13:17:11.645Z,43.71
2017-07-21T13:18:21.560Z,43.41
2017-07-21T13:19:31.485Z,43.61
2017-07-21T13:20:41.089Z,43.22
2017-07-21T13:21:50.750Z,43.4
2017-07-21T13:23:00.673Z,43.51
2017-07-21T13:24:10.582Z,43.59
2017-07-21T13:25:20.190Z,43.41
2017-07-21T13:26:29.797Z,43.32
2017-07-21T13:27:39.420Z,43.68
2017-07-21T13:28:49.035Z,43.41
2017-07-21T13:29:58.943Z,43.59
2017-07-21T13:31:08.554Z,43.41
2017-07-21T13:32:17.884Z,43.41
2017-07-21T13:33:27.797Z,43.41
2017-07-21T13:34:38.024Z,43.2
2017-07-21T13:35:48.253Z,43.51
2017-07-21T13:36:58.184Z,43.51
2017-07-21T13:38:08.409Z,43.49
2017-07-21T13:39:18.627Z,43.61
2017-07-21T13:40:28.861Z,43.61
2017-07-21T13:41:38.780Z,43.59
2017-07-21T13:42:48.710Z,43.61
2017-07-21T13:43:58.948Z,43.61
2017-07-21T13:45:08.877Z,43.51
2017-07-21T13:46:19.102Z,43.32
2017-07-21T13:47:29.014Z,43.71
2017-07-21T13:48:39.222Z,43.12
2017-07-21T13:49:49.166Z,43.61
2017-07-21T13:50:59.414Z,43.41
2017-07-21T13:52:09.640Z,43.61
2017-07-21T13:53:19.249Z,43.61
2017-07-21T13:54:28.851Z,43.51
2017-07-21T13:55:38.765Z,43.51
2017-07-21T13:56:48.362Z,43.71
2017-07-21T13:57:58.573Z,43.61
2017-07-21T13:59:08.793Z,43.61
2017-07-21T14:00:18.082Z,43.61
2017-07-21T14:01:28.011Z,43.12
2017-07-21T14:02:37.936Z,43.61
2017-07-21T14:03:47.850Z,43.51
2017-07-21T14:04:58.067Z,43.12
2017-07-21T14:06:07.678Z,43.32
2017-07-21T14:07:17.594Z,43.22
2017-07-21T14:08:27.810Z,43.61
2017-07-21T14:09:37.724Z,43.51
2017-07-21T14:10:48.012Z,43.12
2017-07-21T14:11:57.308Z,43.12
2017-07-21T14:13:06.933Z,43.12
2017-07-21T14:14:16.548Z,43.32
2017-07-21T14:15:26.463Z,43.12
2017-07-21T14:16:36.396Z,43.61
2017-07-21T14:17:46.332Z,43.32
2017-07-21T14:18:55.938Z,43.32
2017-07-21T14:20:05.888Z,43.32
2017-07-21T14:21:16.109Z,43.32
2017-07-21T14:22:26.028Z,43.71
2017-07-21T14:23:36.249Z,43.32
2017-07-21T14:24:46.481Z,43.12
2017-07-21T14:25:56.404Z,43.41
2017-07-21T14:27:06.621Z,43.61
2017-07-21T14:28:16.535Z,43.32
2017-07-21T14:29:25.834Z,43.32
2017-07-21T14:30:35.429Z,43.22
2017-07-21T14:31:45.046Z,43.22
2017-07-21T14:32:54.949Z,43.32
2017-07-21T14:34:05.179Z,43.32
2017-07-21T14:35:15.114Z,43.12
2017-07-21T14:36:25.396Z,43.32
2017-07-21T14:37:35.320Z,43.32
2017-07-21T14:38:45.223Z,43.32
2017-07-21T14:39:55.138Z,43.32
2017-07-21T14:41:05.059Z,43.32
2017-07-21T14:42:15.271Z,43.61
2017-07-21T14:43:25.200Z,43.51
2017-07-21T14:44:35.432Z,43.22
2017-07-21T14:45:45.346Z,43.32
2017-07-21T14:46:54.993Z,43.32
2017-07-21T14:48:04.909Z,43.32
2017-07-21T14:49:14.210Z,43.12
2017-07-21T14:50:24.422Z,43.32
2017-07-21T14:51:34.021Z,43.1
2017-07-21T14:52:43.931Z,43.32
2017-07-21T14:53:53.837Z,43.32
2017-07-21T14:55:04.048Z,43.61
2017-07-21T14:56:13.958Z,43.32
2017-07-21T14:57:23.572Z,43.71
2017-07-21T14:58:33.493Z,43.12
2017-07-21T14:59:43.093Z,43.32
2017-07-21T15:00:52.702Z,43.61
2017-07-21T15:02:02.612Z,43.61
2017-07-21T15:03:12.532Z,43.12
2017-07-21T15:04:22.437Z,43.32
2017-07-21T15:05:32.044Z,43.3
2017-07-21T15:06:41.663Z,43.22